Vero Beach Municipal, FL

09:38 EST le 31 janvier 2015 (GMT -0500)
Saint Lucie County International | Change Station
CLOSE
Current Station
Aéroport
Location: Ft Pierce,
Altitude: 23 ft
Stations météo à proximité

Alt. 23 ft 27.50 °N, 80.38 °W | Updated 45 minutes ago

Ciel dégagé
Ciel dégagé
65 ° F
Paraît 65 ° F
N
6
Vent Variable Vent de ENE

Aujourd'hui
Haut(e) -- | Bas -- ° F
--% Risque de précip.
Hier
Haut(e) -- | Bas -- ° F
Precip. -- pouce
7:08 AM 6:01 PM
Lune gibbeuse croissante, 90% visible
Pression 30.23 pouce
Visibilité 10.0 Miles terrestres
Nuages Ciel dégagé
Point de rosée 51 ° F
Humidité 61%
Précipitations 0.00 pouce
Profondeur de la couche neigeuse Non disponible.
UV 2 sur 12
Pollen 8.30 sur 12
Qualité de l'air Non disponible.
Flu Activity Non disponible.
METAR KFPR 311353Z 06005KT 10SM CLR 18/11 A3023 RMK AO2 SLP235 T01830106

More Conditions Fewer Conditions

Pression 30.23 pouce
Visibilité 10.0 Miles terrestres
Nuages Ciel dégagé
Point de rosée 51 ° F
Humidité 61%
Précipitations 0.00 pouce
Profondeur de la couche neigeuse Non disponible.
UV 2 sur 12
Pollen 8.30 sur 12
Qualité de l'air Non disponible.
Flu Activity Non disponible.
METAR KFPR 311353Z 06005KT 10SM CLR 18/11 A3023 RMK AO2 SLP235 T01830106

More Conditions Fewer Conditions

10-Day Weather Forecast

Almanac

Astronomie

Jan. 31, 2015 Lever Coucher
Temps réel
Crépuscule civil
Crépuscule nautique
Crépuscule astronomique
Lune
Durée de lumière visible
Longueur du jour
Tomorrow will be .
, % of the Moon is Illuminated

Extrêmes aujourd'hui

State Highs State Lows

Community

WunderPhotos

Upload Photos

1,792,060 Photos téléchargées !

WunderBlogs® & News

Nearby

Qualité de l'air

  Qualité de l'air Indice de la qualité de l'air Polluant
Not available.

Épaisseur de neige

Station Depth Altitude

Activité sismique

Ville Distance Mag. Time & Date
Minimum magnitude displayed is 2.5.

Températures des eaux côtières

Lieu Température

Stations météo à proximité